sensor_id;sensor_type;location;lat;lon;timestamp;P1;durP1;ratioP1;P2;durP2;ratioP2
70450;SDS011;58869;51.982;4.450;2023-10-09T00:01:06;9.59;;;9.59;;
70450;SDS011;58869;51.982;4.450;2023-10-09T00:03:41;9.77;;;9.77;;
70450;SDS011;58869;51.982;4.450;2023-10-09T00:06:09;9.94;;;9.91;;
70450;SDS011;58869;51.982;4.450;2023-10-09T00:08:40;9.74;;;9.74;;
70450;SDS011;58869;51.982;4.450;2023-10-09T00:11:10;9.52;;;9.52;;
70450;SDS011;58869;51.982;4.450;2023-10-09T00:13:43;10.42;;;10.40;;
70450;SDS011;58869;51.982;4.450;2023-10-09T00:16:19;9.79;;;9.79;;
70450;SDS011;58869;51.982;4.450;2023-10-09T00:19:01;9.94;;;9.94;;
70450;SDS011;58869;51.982;4.450;2023-10-09T00:21:45;9.89;;;9.89;;
70450;SDS011;58869;51.982;4.450;2023-10-09T00:24:13;9.68;;;9.67;;
70450;SDS011;58869;51.982;4.450;2023-10-09T00:26:45;8.85;;;8.85;;
70450;SDS011;58869;51.982;4.450;2023-10-09T00:29:11;8.85;;;8.85;;
70450;SDS011;58869;51.982;4.450;2023-10-09T00:31:41;8.60;;;8.60;;
70450;SDS011;58869;51.982;4.450;2023-10-09T00:34:16;8.35;;;8.35;;
70450;SDS011;58869;51.982;4.450;2023-10-09T00:36:46;8.65;;;8.65;;
70450;SDS011;58869;51.982;4.450;2023-10-09T00:39:18;8.59;;;8.59;;
70450;SDS011;58869;51.982;4.450;2023-10-09T00:41:59;8.39;;;8.39;;
70450;SDS011;58869;51.982;4.450;2023-10-09T00:44:26;8.35;;;8.35;;
70450;SDS011;58869;51.982;4.450;2023-10-09T00:47:04;8.37;;;8.37;;
70450;SDS011;58869;51.982;4.450;2023-10-09T00:49:36;8.69;;;8.69;;
70450;SDS011;58869;51.982;4.450;2023-10-09T00:52:07;8.39;;;8.39;;
70450;SDS011;58869;51.982;4.450;2023-10-09T00:54:42;8.19;;;8.19;;
70450;SDS011;58869;51.982;4.450;2023-10-09T00:57:15;8.52;;;8.52;;
70450;SDS011;58869;51.982;4.450;2023-10-09T00:59:43;8.59;;;8.59;;
70450;SDS011;58869;51.982;4.450;2023-10-09T01:02:17;8.59;;;8.59;;
70450;SDS011;58869;51.982;4.450;2023-10-09T01:04:44;8.74;;;8.74;;
70450;SDS011;58869;51.982;4.450;2023-10-09T01:07:10;8.75;;;8.75;;
70450;SDS011;58869;51.982;4.450;2023-10-09T01:09:50;8.41;;;8.41;;
70450;SDS011;58869;51.982;4.450;2023-10-09T01:12:18;8.76;;;8.76;;
70450;SDS011;58869;51.982;4.450;2023-10-09T01:14:44;9.07;;;9.06;;
70450;SDS011;58869;51.982;4.450;2023-10-09T01:17:10;8.84;;;8.84;;
70450;SDS011;58869;51.982;4.450;2023-10-09T01:19:37;8.78;;;8.78;;
70450;SDS011;58869;51.982;4.450;2023-10-09T01:22:02;8.46;;;8.46;;
70450;SDS011;58869;51.982;4.450;2023-10-09T01:24:48;8.54;;;8.53;;
70450;SDS011;58869;51.982;4.450;2023-10-09T01:27:15;8.54;;;8.54;;
70450;SDS011;58869;51.982;4.450;2023-10-09T01:29:41;8.35;;;8.35;;
70450;SDS011;58869;51.982;4.450;2023-10-09T01:32:07;8.32;;;8.32;;
70450;SDS011;58869;51.982;4.450;2023-10-09T01:34:38;8.45;;;8.45;;
70450;SDS011;58869;51.982;4.450;2023-10-09T01:37:06;8.68;;;8.68;;
70450;SDS011;58869;51.982;4.450;2023-10-09T01:39:47;8.60;;;8.60;;
70450;SDS011;58869;51.982;4.450;2023-10-09T01:42:16;8.62;;;8.62;;
70450;SDS011;58869;51.982;4.450;2023-10-09T01:45:10;8.20;;;8.20;;
70450;SDS011;58869;51.982;4.450;2023-10-09T01:47:37;8.74;;;8.74;;
70450;SDS011;58869;51.982;4.450;2023-10-09T01:50:06;8.33;;;8.33;;
70450;SDS011;58869;51.982;4.450;2023-10-09T01:52:43;8.34;;;8.34;;
70450;SDS011;58869;51.982;4.450;2023-10-09T01:55:08;8.13;;;8.13;;
70450;SDS011;58869;51.982;4.450;2023-10-09T01:57:37;8.41;;;8.41;;
70450;SDS011;58869;51.982;4.450;2023-10-09T02:00:04;8.19;;;8.19;;
70450;SDS011;58869;51.982;4.450;2023-10-09T02:02:32;8.37;;;8.37;;
70450;SDS011;58869;51.982;4.450;2023-10-09T02:05:01;8.06;;;8.06;;
70450;SDS011;58869;51.982;4.450;2023-10-09T02:07:38;8.13;;;8.12;;
70450;SDS011;58869;51.982;4.450;2023-10-09T02:10:10;7.74;;;7.74;;
70450;SDS011;58869;51.982;4.450;2023-10-09T02:12:58;8.17;;;8.15;;
70450;SDS011;58869;51.982;4.450;2023-10-09T02:15:42;8.34;;;8.31;;
70450;SDS011;58869;51.982;4.450;2023-10-09T02:18:11;8.24;;;8.23;;
70450;SDS011;58869;51.982;4.450;2023-10-09T02:20:48;8.44;;;8.44;;
70450;SDS011;58869;51.982;4.450;2023-10-09T02:23:33;8.62;;;8.60;;
70450;SDS011;58869;51.982;4.450;2023-10-09T02:26:09;8.87;;;8.87;;
70450;SDS011;58869;51.982;4.450;2023-10-09T02:28:44;8.90;;;8.89;;
70450;SDS011;58869;51.982;4.450;2023-10-09T02:31:18;8.54;;;8.54;;
70450;SDS011;58869;51.982;4.450;2023-10-09T02:33:47;8.90;;;8.90;;
70450;SDS011;58869;51.982;4.450;2023-10-09T02:36:15;8.57;;;8.56;;
70450;SDS011;58869;51.982;4.450;2023-10-09T02:38:40;8.71;;;8.71;;
70450;SDS011;58869;51.982;4.450;2023-10-09T02:41:07;8.84;;;8.82;;
70450;SDS011;58869;51.982;4.450;2023-10-09T02:43:39;8.87;;;8.87;;
70450;SDS011;58869;51.982;4.450;2023-10-09T02:46:16;8.84;;;8.84;;
70450;SDS011;58869;51.982;4.450;2023-10-09T02:48:46;9.34;;;9.34;;
70450;SDS011;58869;51.982;4.450;2023-10-09T02:51:22;9.08;;;9.06;;
70450;SDS011;58869;51.982;4.450;2023-10-09T02:53:52;9.19;;;9.12;;
70450;SDS011;58869;51.982;4.450;2023-10-09T02:56:18;9.24;;;9.20;;
70450;SDS011;58869;51.982;4.450;2023-10-09T02:58:52;9.34;;;9.34;;
70450;SDS011;58869;51.982;4.450;2023-10-09T03:01:17;9.43;;;9.43;;
70450;SDS011;58869;51.982;4.450;2023-10-09T03:03:44;9.38;;;9.38;;
70450;SDS011;58869;51.982;4.450;2023-10-09T03:06:11;9.44;;;9.40;;
70450;SDS011;58869;51.982;4.450;2023-10-09T03:08:38;9.70;;;9.68;;
70450;SDS011;58869;51.982;4.450;2023-10-09T03:11:07;9.46;;;9.46;;
70450;SDS011;58869;51.982;4.450;2023-10-09T03:13:40;9.51;;;9.50;;
70450;SDS011;58869;51.982;4.450;2023-10-09T03:16:08;9.80;;;9.77;;
70450;SDS011;58869;51.982;4.450;2023-10-09T03:18:39;9.49;;;9.49;;
70450;SDS011;58869;51.982;4.450;2023-10-09T03:21:05;9.52;;;9.52;;
70450;SDS011;58869;51.982;4.450;2023-10-09T03:23:31;9.91;;;9.89;;
70450;SDS011;58869;51.982;4.450;2023-10-09T03:25:57;9.58;;;9.57;;
70450;SDS011;58869;51.982;4.450;2023-10-09T03:28:24;10.20;;;10.18;;
70450;SDS011;58869;51.982;4.450;2023-10-09T03:30:51;9.64;;;9.63;;
70450;SDS011;58869;51.982;4.450;2023-10-09T03:33:18;9.70;;;9.70;;
70450;SDS011;58869;51.982;4.450;2023-10-09T03:35:44;10.12;;;10.12;;
70450;SDS011;58869;51.982;4.450;2023-10-09T03:38:11;10.48;;;10.46;;
70450;SDS011;58869;51.982;4.450;2023-10-09T03:40:44;11.02;;;11.02;;
70450;SDS011;58869;51.982;4.450;2023-10-09T03:43:13;11.04;;;11.04;;
70450;SDS011;58869;51.982;4.450;2023-10-09T03:45:40;11.42;;;11.41;;
70450;SDS011;58869;51.982;4.450;2023-10-09T03:48:22;11.56;;;11.56;;
70450;SDS011;58869;51.982;4.450;2023-10-09T03:50:51;11.18;;;11.17;;
70450;SDS011;58869;51.982;4.450;2023-10-09T03:53:33;11.32;;;11.28;;
70450;SDS011;58869;51.982;4.450;2023-10-09T03:56:02;11.21;;;11.20;;
70450;SDS011;58869;51.982;4.450;2023-10-09T03:58:40;11.04;;;11.03;;
70450;SDS011;58869;51.982;4.450;2023-10-09T04:01:14;11.11;;;11.11;;
70450;SDS011;58869;51.982;4.450;2023-10-09T04:03:50;11.72;;;11.71;;
70450;SDS011;58869;51.982;4.450;2023-10-09T04:06:26;12.08;;;12.07;;
70450;SDS011;58869;51.982;4.450;2023-10-09T04:08:58;11.53;;;11.53;;
70450;SDS011;58869;51.982;4.450;2023-10-09T04:11:43;11.15;;;11.15;;
70450;SDS011;58869;51.982;4.450;2023-10-09T04:14:13;11.39;;;11.39;;
70450;SDS011;58869;51.982;4.450;2023-10-09T04:16:50;11.02;;;11.02;;
70450;SDS011;58869;51.982;4.450;2023-10-09T04:19:38;10.99;;;10.99;;
70450;SDS011;58869;51.982;4.450;2023-10-09T04:22:13;11.13;;;11.13;;
70450;SDS011;58869;51.982;4.450;2023-10-09T04:24:51;10.64;;;10.64;;
70450;SDS011;58869;51.982;4.450;2023-10-09T04:27:22;10.87;;;10.87;;
70450;SDS011;58869;51.982;4.450;2023-10-09T04:29:54;11.76;;;11.76;;
70450;SDS011;58869;51.982;4.450;2023-10-09T04:32:20;12.23;;;12.23;;
70450;SDS011;58869;51.982;4.450;2023-10-09T04:34:50;12.52;;;12.52;;
70450;SDS011;58869;51.982;4.450;2023-10-09T04:37:36;12.00;;;12.00;;
70450;SDS011;58869;51.982;4.450;2023-10-09T04:40:04;12.23;;;12.20;;
70450;SDS011;58869;51.982;4.450;2023-10-09T04:42:37;11.55;;;11.55;;
70450;SDS011;58869;51.982;4.450;2023-10-09T04:45:03;11.06;;;11.06;;
70450;SDS011;58869;51.982;4.450;2023-10-09T04:47:33;11.65;;;11.65;;
70450;SDS011;58869;51.982;4.450;2023-10-09T04:50:23;11.21;;;11.21;;
70450;SDS011;58869;51.982;4.450;2023-10-09T04:52:55;11.72;;;11.72;;
70450;SDS011;58869;51.982;4.450;2023-10-09T04:55:21;11.55;;;11.55;;
70450;SDS011;58869;51.982;4.450;2023-10-09T04:57:50;11.39;;;11.39;;
70450;SDS011;58869;51.982;4.450;2023-10-09T05:00:38;11.07;;;11.07;;
70450;SDS011;58869;51.982;4.450;2023-10-09T05:03:07;11.33;;;11.33;;
70450;SDS011;58869;51.982;4.450;2023-10-09T05:05:36;11.26;;;11.26;;
70450;SDS011;58869;51.982;4.450;2023-10-09T05:08:08;11.20;;;11.20;;
70450;SDS011;58869;51.982;4.450;2023-10-09T05:13:32;11.91;;;11.91;;
70450;SDS011;58869;51.982;4.450;2023-10-09T05:16:05;11.52;;;11.52;;
70450;SDS011;58869;51.982;4.450;2023-10-09T05:18:38;11.41;;;11.40;;
70450;SDS011;58869;51.982;4.450;2023-10-09T05:21:05;11.42;;;11.42;;
70450;SDS011;58869;51.982;4.450;2023-10-09T05:23:51;11.06;;;11.05;;
70450;SDS011;58869;51.982;4.450;2023-10-09T05:26:35;10.66;;;10.65;;
70450;SDS011;58869;51.982;4.450;2023-10-09T05:29:14;10.20;;;10.19;;
70450;SDS011;58869;51.982;4.450;2023-10-09T05:31:50;10.74;;;10.73;;
70450;SDS011;58869;51.982;4.450;2023-10-09T05:34:25;10.30;;;10.30;;
70450;SDS011;58869;51.982;4.450;2023-10-09T05:37:06;9.80;;;9.80;;
70450;SDS011;58869;51.982;4.450;2023-10-09T05:39:53;9.59;;;9.59;;
70450;SDS011;58869;51.982;4.450;2023-10-09T05:42:26;9.74;;;9.73;;
70450;SDS011;58869;51.982;4.450;2023-10-09T05:45:16;9.21;;;9.20;;
70450;SDS011;58869;51.982;4.450;2023-10-09T05:47:51;9.10;;;9.10;;
70450;SDS011;58869;51.982;4.450;2023-10-09T05:50:19;9.41;;;9.38;;
70450;SDS011;58869;51.982;4.450;2023-10-09T05:52:48;9.32;;;9.29;;
70450;SDS011;58869;51.982;4.450;2023-10-09T05:55:17;9.46;;;9.43;;
70450;SDS011;58869;51.982;4.450;2023-10-09T05:57:46;9.25;;;9.23;;
70450;SDS011;58869;51.982;4.450;2023-10-09T06:00:17;9.28;;;9.26;;
70450;SDS011;58869;51.982;4.450;2023-10-09T06:03:02;9.47;;;9.46;;
70450;SDS011;58869;51.982;4.450;2023-10-09T06:05:49;9.75;;;9.71;;
70450;SDS011;58869;51.982;4.450;2023-10-09T06:08:36;9.84;;;9.83;;
70450;SDS011;58869;51.982;4.450;2023-10-09T06:11:08;10.45;;;10.44;;
70450;SDS011;58869;51.982;4.450;2023-10-09T06:13:56;9.95;;;9.91;;
70450;SDS011;58869;51.982;4.450;2023-10-09T06:16:32;10.38;;;10.30;;
70450;SDS011;58869;51.982;4.450;2023-10-09T06:19:05;10.44;;;10.38;;
70450;SDS011;58869;51.982;4.450;2023-10-09T06:21:36;10.27;;;10.25;;
70450;SDS011;58869;51.982;4.450;2023-10-09T06:24:08;10.03;;;10.03;;
70450;SDS011;58869;51.982;4.450;2023-10-09T06:26:35;10.40;;;10.40;;
70450;SDS011;58869;51.982;4.450;2023-10-09T06:29:01;9.95;;;9.95;;
70450;SDS011;58869;51.982;4.450;2023-10-09T06:31:55;10.31;;;10.27;;
70450;SDS011;58869;51.982;4.450;2023-10-09T06:34:27;9.96;;;9.94;;
70450;SDS011;58869;51.982;4.450;2023-10-09T06:37:01;10.34;;;10.33;;
70450;SDS011;58869;51.982;4.450;2023-10-09T06:39:43;10.54;;;10.47;;
70450;SDS011;58869;51.982;4.450;2023-10-09T06:42:24;10.47;;;10.40;;
70450;SDS011;58869;51.982;4.450;2023-10-09T06:45:01;10.24;;;10.22;;
70450;SDS011;58869;51.982;4.450;2023-10-09T06:47:33;9.98;;;9.96;;
70450;SDS011;58869;51.982;4.450;2023-10-09T06:50:20;10.14;;;10.12;;
70450;SDS011;58869;51.982;4.450;2023-10-09T06:52:47;9.97;;;9.97;;
70450;SDS011;58869;51.982;4.450;2023-10-09T06:55:23;10.16;;;10.14;;
70450;SDS011;58869;51.982;4.450;2023-10-09T06:57:59;10.35;;;10.32;;
70450;SDS011;58869;51.982;4.450;2023-10-09T07:00:29;10.51;;;10.50;;
70450;SDS011;58869;51.982;4.450;2023-10-09T07:03:33;10.09;;;10.09;;
70450;SDS011;58869;51.982;4.450;2023-10-09T07:06:05;10.65;;;10.65;;
70450;SDS011;58869;51.982;4.450;2023-10-09T07:08:38;10.19;;;10.17;;
70450;SDS011;58869;51.982;4.450;2023-10-09T07:11:23;10.47;;;10.43;;
70450;SDS011;58869;51.982;4.450;2023-10-09T07:14:06;10.52;;;10.49;;
70450;SDS011;58869;51.982;4.450;2023-10-09T07:17:01;10.53;;;10.52;;
70450;SDS011;58869;51.982;4.450;2023-10-09T07:19:41;10.85;;;10.82;;
70450;SDS011;58869;51.982;4.450;2023-10-09T07:22:12;10.79;;;10.79;;
70450;SDS011;58869;51.982;4.450;2023-10-09T07:25:01;11.24;;;11.24;;
70450;SDS011;58869;51.982;4.450;2023-10-09T07:27:41;10.74;;;10.74;;
70450;SDS011;58869;51.982;4.450;2023-10-09T07:33:03;10.30;;;10.28;;
70450;SDS011;58869;51.982;4.450;2023-10-09T07:35:33;10.23;;;10.23;;
70450;SDS011;58869;51.982;4.450;2023-10-09T07:38:25;10.39;;;10.39;;
70450;SDS011;58869;51.982;4.450;2023-10-09T07:41:00;9.95;;;9.93;;
70450;SDS011;58869;51.982;4.450;2023-10-09T07:43:31;10.36;;;10.34;;
70450;SDS011;58869;51.982;4.450;2023-10-09T07:46:11;10.30;;;10.29;;
70450;SDS011;58869;51.982;4.450;2023-10-09T07:49:17;9.91;;;9.90;;
70450;SDS011;58869;51.982;4.450;2023-10-09T07:51:50;9.67;;;9.67;;
70450;SDS011;58869;51.982;4.450;2023-10-09T07:54:18;10.19;;;10.17;;
70450;SDS011;58869;51.982;4.450;2023-10-09T07:56:57;10.31;;;10.31;;
70450;SDS011;58869;51.982;4.450;2023-10-09T08:04:50;9.63;;;9.59;;
70450;SDS011;58869;51.982;4.450;2023-10-09T08:07:18;9.33;;;9.30;;
70450;SDS011;58869;51.982;4.450;2023-10-09T08:10:03;9.91;;;9.79;;
70450;SDS011;58869;51.982;4.450;2023-10-09T08:12:58;9.65;;;9.61;;
70450;SDS011;58869;51.982;4.450;2023-10-09T08:15:25;9.07;;;9.06;;
70450;SDS011;58869;51.982;4.450;2023-10-09T08:18:15;9.35;;;9.35;;
70450;SDS011;58869;51.982;4.450;2023-10-09T08:20:53;9.43;;;9.41;;
70450;SDS011;58869;51.982;4.450;2023-10-09T08:23:22;9.74;;;9.68;;
70450;SDS011;58869;51.982;4.450;2023-10-09T08:26:06;9.71;;;9.65;;
70450;SDS011;58869;51.982;4.450;2023-10-09T08:28:41;10.06;;;10.06;;
70450;SDS011;58869;51.982;4.450;2023-10-09T08:31:16;9.78;;;9.76;;
70450;SDS011;58869;51.982;4.450;2023-10-09T08:34:10;10.09;;;10.09;;
70450;SDS011;58869;51.982;4.450;2023-10-09T08:36:50;10.53;;;10.53;;
70450;SDS011;58869;51.982;4.450;2023-10-09T08:39:20;10.30;;;10.29;;
70450;SDS011;58869;51.982;4.450;2023-10-09T08:41:53;10.08;;;10.06;;
70450;SDS011;58869;51.982;4.450;2023-10-09T08:44:23;10.46;;;10.42;;
70450;SDS011;58869;51.982;4.450;2023-10-09T08:46:50;10.03;;;10.00;;
70450;SDS011;58869;51.982;4.450;2023-10-09T08:49:16;10.03;;;10.02;;
70450;SDS011;58869;51.982;4.450;2023-10-09T08:51:43;10.03;;;10.03;;
70450;SDS011;58869;51.982;4.450;2023-10-09T08:54:11;9.88;;;9.85;;
70450;SDS011;58869;51.982;4.450;2023-10-09T08:56:40;9.60;;;9.58;;
70450;SDS011;58869;51.982;4.450;2023-10-09T08:59:15;10.00;;;10.00;;
70450;SDS011;58869;51.982;4.450;2023-10-09T09:02:01;10.18;;;10.14;;
70450;SDS011;58869;51.982;4.450;2023-10-09T09:04:38;9.63;;;9.62;;
70450;SDS011;58869;51.982;4.450;2023-10-09T09:09:54;9.24;;;9.21;;
70450;SDS011;58869;51.982;4.450;2023-10-09T09:12:28;8.67;;;8.66;;
70450;SDS011;58869;51.982;4.450;2023-10-09T09:15:03;8.80;;;8.78;;
70450;SDS011;58869;51.982;4.450;2023-10-09T09:17:32;8.72;;;8.72;;
70450;SDS011;58869;51.982;4.450;2023-10-09T09:19:58;9.03;;;9.03;;
70450;SDS011;58869;51.982;4.450;2023-10-09T09:22:23;9.47;;;9.44;;
70450;SDS011;58869;51.982;4.450;2023-10-09T09:30:02;9.21;;;9.21;;
70450;SDS011;58869;51.982;4.450;2023-10-09T09:32:32;9.16;;;9.16;;
70450;SDS011;58869;51.982;4.450;2023-10-09T09:35:04;9.16;;;9.15;;
70450;SDS011;58869;51.982;4.450;2023-10-09T09:37:31;8.94;;;8.87;;
70450;SDS011;58869;51.982;4.450;2023-10-09T09:40:17;8.46;;;8.42;;
70450;SDS011;58869;51.982;4.450;2023-10-09T09:42:56;8.62;;;8.61;;
70450;SDS011;58869;51.982;4.450;2023-10-09T09:45:32;8.02;;;8.00;;
70450;SDS011;58869;51.982;4.450;2023-10-09T09:48:00;8.07;;;8.05;;
70450;SDS011;58869;51.982;4.450;2023-10-09T09:50:31;7.92;;;7.92;;
70450;SDS011;58869;51.982;4.450;2023-10-09T09:52:58;8.04;;;8.04;;
70450;SDS011;58869;51.982;4.450;2023-10-09T09:55:31;7.70;;;7.70;;
70450;SDS011;58869;51.982;4.450;2023-10-09T09:57:59;7.39;;;7.38;;
70450;SDS011;58869;51.982;4.450;2023-10-09T10:00:31;7.74;;;7.73;;
70450;SDS011;58869;51.982;4.450;2023-10-09T10:03:14;7.52;;;7.49;;
70450;SDS011;58869;51.982;4.450;2023-10-09T10:05:58;7.54;;;7.51;;
70450;SDS011;58869;51.982;4.450;2023-10-09T10:08:30;7.29;;;7.24;;
70450;SDS011;58869;51.982;4.450;2023-10-09T10:10:58;7.22;;;7.22;;
70450;SDS011;58869;51.982;4.450;2023-10-09T10:16:17;7.43;;;7.40;;
70450;SDS011;58869;51.982;4.450;2023-10-09T10:31:14;7.94;;;7.90;;
70450;SDS011;58869;51.982;4.450;2023-10-09T10:36:26;7.40;;;7.38;;
70450;SDS011;58869;51.982;4.450;2023-10-09T10:39:01;7.58;;;7.55;;
70450;SDS011;58869;51.982;4.450;2023-10-09T10:41:29;7.94;;;7.82;;
70450;SDS011;58869;51.982;4.450;2023-10-09T10:44:03;7.64;;;7.59;;
70450;SDS011;58869;51.982;4.450;2023-10-09T10:46:48;7.73;;;7.71;;
70450;SDS011;58869;51.982;4.450;2023-10-09T10:49:19;7.43;;;7.41;;
70450;SDS011;58869;51.982;4.450;2023-10-09T10:51:51;7.33;;;7.32;;
70450;SDS011;58869;51.982;4.450;2023-10-09T10:54:29;7.56;;;7.56;;
70450;SDS011;58869;51.982;4.450;2023-10-09T10:57:00;7.61;;;7.61;;
70450;SDS011;58869;51.982;4.450;2023-10-09T10:59:32;7.75;;;7.71;;
70450;SDS011;58869;51.982;4.450;2023-10-09T11:02:09;7.61;;;7.58;;
70450;SDS011;58869;51.982;4.450;2023-10-09T11:04:35;7.56;;;7.53;;
70450;SDS011;58869;51.982;4.450;2023-10-09T11:07:02;7.66;;;7.65;;
70450;SDS011;58869;51.982;4.450;2023-10-09T11:09:47;7.58;;;7.57;;
70450;SDS011;58869;51.982;4.450;2023-10-09T11:12:32;7.80;;;7.79;;
70450;SDS011;58869;51.982;4.450;2023-10-09T11:15:08;7.34;;;7.31;;
70450;SDS011;58869;51.982;4.450;2023-10-09T11:18:01;7.51;;;7.49;;
70450;SDS011;58869;51.982;4.450;2023-10-09T11:20:42;7.30;;;7.28;;
70450;SDS011;58869;51.982;4.450;2023-10-09T11:23:21;7.60;;;7.57;;
70450;SDS011;58869;51.982;4.450;2023-10-09T11:26:23;7.32;;;7.31;;
70450;SDS011;58869;51.982;4.450;2023-10-09T11:29:12;7.25;;;7.23;;
70450;SDS011;58869;51.982;4.450;2023-10-09T11:31:41;7.47;;;7.44;;
70450;SDS011;58869;51.982;4.450;2023-10-09T11:34:19;7.02;;;7.01;;
70450;SDS011;58869;51.982;4.450;2023-10-09T11:36:54;7.17;;;7.15;;
70450;SDS011;58869;51.982;4.450;2023-10-09T11:39:25;7.33;;;7.31;;
70450;SDS011;58869;51.982;4.450;2023-10-09T11:42:17;7.14;;;7.13;;
70450;SDS011;58869;51.982;4.450;2023-10-09T11:45:03;7.19;;;7.18;;
70450;SDS011;58869;51.982;4.450;2023-10-09T11:47:45;7.38;;;7.31;;
70450;SDS011;58869;51.982;4.450;2023-10-09T11:50:38;7.08;;;7.07;;
70450;SDS011;58869;51.982;4.450;2023-10-09T11:53:18;7.54;;;7.49;;
70450;SDS011;58869;51.982;4.450;2023-10-09T11:55:46;7.37;;;7.35;;
70450;SDS011;58869;51.982;4.450;2023-10-09T11:58:15;7.77;;;7.76;;
70450;SDS011;58869;51.982;4.450;2023-10-09T12:00:48;7.96;;;7.91;;
70450;SDS011;58869;51.982;4.450;2023-10-09T12:03:38;7.75;;;7.71;;
70450;SDS011;58869;51.982;4.450;2023-10-09T12:06:04;7.87;;;7.82;;
70450;SDS011;58869;51.982;4.450;2023-10-09T12:08:33;7.85;;;7.82;;
70450;SDS011;58869;51.982;4.450;2023-10-09T12:11:00;7.71;;;7.71;;
70450;SDS011;58869;51.982;4.450;2023-10-09T12:13:29;7.17;;;7.17;;
70450;SDS011;58869;51.982;4.450;2023-10-09T12:15:56;7.49;;;7.49;;
70450;SDS011;58869;51.982;4.450;2023-10-09T12:18:23;7.85;;;7.85;;
70450;SDS011;58869;51.982;4.450;2023-10-09T12:20:49;7.89;;;7.88;;
70450;SDS011;58869;51.982;4.450;2023-10-09T12:23:27;7.74;;;7.72;;
70450;SDS011;58869;51.982;4.450;2023-10-09T12:25:53;7.44;;;7.44;;
70450;SDS011;58869;51.982;4.450;2023-10-09T12:28:22;7.76;;;7.76;;
70450;SDS011;58869;51.982;4.450;2023-10-09T12:30:48;7.84;;;7.84;;
70450;SDS011;58869;51.982;4.450;2023-10-09T12:33:17;7.98;;;7.98;;
70450;SDS011;58869;51.982;4.450;2023-10-09T12:35:44;7.85;;;7.84;;
70450;SDS011;58869;51.982;4.450;2023-10-09T12:38:11;8.40;;;8.39;;
70450;SDS011;58869;51.982;4.450;2023-10-09T12:40:38;7.86;;;7.81;;
70450;SDS011;58869;51.982;4.450;2023-10-09T12:43:06;8.24;;;8.19;;
70450;SDS011;58869;51.982;4.450;2023-10-09T12:45:40;7.79;;;7.77;;
70450;SDS011;58869;51.982;4.450;2023-10-09T12:48:06;8.60;;;8.57;;
70450;SDS011;58869;51.982;4.450;2023-10-09T12:50:37;8.47;;;8.45;;
70450;SDS011;58869;51.982;4.450;2023-10-09T12:53:10;7.89;;;7.89;;
70450;SDS011;58869;51.982;4.450;2023-10-09T12:55:37;8.02;;;8.01;;
70450;SDS011;58869;51.982;4.450;2023-10-09T12:58:24;7.93;;;7.90;;
70450;SDS011;58869;51.982;4.450;2023-10-09T13:00:52;8.07;;;8.05;;
70450;SDS011;58869;51.982;4.450;2023-10-09T13:03:17;8.44;;;8.40;;
70450;SDS011;58869;51.982;4.450;2023-10-09T13:08:22;8.65;;;8.64;;
70450;SDS011;58869;51.982;4.450;2023-10-09T13:10:49;8.43;;;8.42;;
70450;SDS011;58869;51.982;4.450;2023-10-09T13:13:28;8.34;;;8.34;;
70450;SDS011;58869;51.982;4.450;2023-10-09T13:16:10;7.80;;;7.78;;
70450;SDS011;58869;51.982;4.450;2023-10-09T13:18:54;7.69;;;7.69;;
70450;SDS011;58869;51.982;4.450;2023-10-09T13:21:25;8.60;;;8.54;;
70450;SDS011;58869;51.982;4.450;2023-10-09T13:23:57;8.04;;;7.99;;
70450;SDS011;58869;51.982;4.450;2023-10-09T13:26:23;8.26;;;8.20;;
70450;SDS011;58869;51.982;4.450;2023-10-09T13:28:53;8.00;;;7.92;;
70450;SDS011;58869;51.982;4.450;2023-10-09T13:31:20;8.28;;;8.27;;
70450;SDS011;58869;51.982;4.450;2023-10-09T13:38:58;8.44;;;8.41;;
70450;SDS011;58869;51.982;4.450;2023-10-09T13:41:45;8.82;;;8.81;;
70450;SDS011;58869;51.982;4.450;2023-10-09T13:44:11;8.54;;;8.53;;
70450;SDS011;58869;51.982;4.450;2023-10-09T13:46:37;8.36;;;8.36;;
70450;SDS011;58869;51.982;4.450;2023-10-09T13:49:12;8.08;;;8.08;;
70450;SDS011;58869;51.982;4.450;2023-10-09T13:51:41;7.74;;;7.74;;
70450;SDS011;58869;51.982;4.450;2023-10-09T13:54:11;8.32;;;8.31;;
70450;SDS011;58869;51.982;4.450;2023-10-09T13:56:58;8.22;;;8.21;;
70450;SDS011;58869;51.982;4.450;2023-10-09T13:59:50;8.53;;;8.50;;
70450;SDS011;58869;51.982;4.450;2023-10-09T14:02:17;8.00;;;7.99;;
70450;SDS011;58869;51.982;4.450;2023-10-09T14:04:58;7.71;;;7.67;;
70450;SDS011;58869;51.982;4.450;2023-10-09T14:07:25;8.04;;;8.04;;
70450;SDS011;58869;51.982;4.450;2023-10-09T14:09:51;7.92;;;7.92;;
70450;SDS011;58869;51.982;4.450;2023-10-09T14:12:32;7.87;;;7.87;;
70450;SDS011;58869;51.982;4.450;2023-10-09T14:14:59;8.20;;;8.20;;
70450;SDS011;58869;51.982;4.450;2023-10-09T14:17:28;8.27;;;8.27;;
70450;SDS011;58869;51.982;4.450;2023-10-09T14:26:29;8.29;;;8.28;;
70450;SDS011;58869;51.982;4.450;2023-10-09T14:32:40;8.44;;;8.39;;
70450;SDS011;58869;51.982;4.450;2023-10-09T14:35:16;8.46;;;8.43;;
70450;SDS011;58869;51.982;4.450;2023-10-09T14:37:43;8.46;;;8.45;;
70450;SDS011;58869;51.982;4.450;2023-10-09T14:43:36;8.49;;;8.48;;
70450;SDS011;58869;51.982;4.450;2023-10-09T14:51:39;8.64;;;8.63;;
70450;SDS011;58869;51.982;4.450;2023-10-09T14:57:06;8.39;;;8.39;;
70450;SDS011;58869;51.982;4.450;2023-10-09T14:59:32;8.49;;;8.48;;
70450;SDS011;58869;51.982;4.450;2023-10-09T15:01:58;8.94;;;8.93;;
70450;SDS011;58869;51.982;4.450;2023-10-09T15:04:24;8.80;;;8.79;;
70450;SDS011;58869;51.982;4.450;2023-10-09T15:06:53;8.72;;;8.72;;
70450;SDS011;58869;51.982;4.450;2023-10-09T15:09:18;8.70;;;8.69;;
70450;SDS011;58869;51.982;4.450;2023-10-09T15:11:48;8.82;;;8.82;;
70450;SDS011;58869;51.982;4.450;2023-10-09T15:14:14;8.99;;;8.99;;
70450;SDS011;58869;51.982;4.450;2023-10-09T15:16:41;8.90;;;8.90;;
70450;SDS011;58869;51.982;4.450;2023-10-09T15:19:08;8.57;;;8.57;;
70450;SDS011;58869;51.982;4.450;2023-10-09T15:21:35;8.46;;;8.44;;
70450;SDS011;58869;51.982;4.450;2023-10-09T15:24:09;9.08;;;9.08;;
70450;SDS011;58869;51.982;4.450;2023-10-09T15:26:41;9.02;;;8.98;;
70450;SDS011;58869;51.982;4.450;2023-10-09T15:29:19;9.31;;;9.30;;
70450;SDS011;58869;51.982;4.450;2023-10-09T15:31:49;9.53;;;9.53;;
70450;SDS011;58869;51.982;4.450;2023-10-09T15:34:18;9.08;;;9.08;;
70450;SDS011;58869;51.982;4.450;2023-10-09T15:36:45;9.08;;;9.08;;
70450;SDS011;58869;51.982;4.450;2023-10-09T15:39:12;9.61;;;9.61;;
70450;SDS011;58869;51.982;4.450;2023-10-09T15:41:38;9.28;;;9.23;;
70450;SDS011;58869;51.982;4.450;2023-10-09T15:44:05;9.56;;;9.54;;
70450;SDS011;58869;51.982;4.450;2023-10-09T15:46:31;9.33;;;9.32;;
70450;SDS011;58869;51.982;4.450;2023-10-09T15:48:59;9.20;;;9.20;;
70450;SDS011;58869;51.982;4.450;2023-10-09T15:51:26;9.69;;;9.68;;
70450;SDS011;58869;51.982;4.450;2023-10-09T15:53:52;9.51;;;9.51;;
70450;SDS011;58869;51.982;4.450;2023-10-09T15:56:18;9.08;;;9.08;;
70450;SDS011;58869;51.982;4.450;2023-10-09T15:58:43;8.94;;;8.94;;
70450;SDS011;58869;51.982;4.450;2023-10-09T16:01:14;9.05;;;9.05;;
70450;SDS011;58869;51.982;4.450;2023-10-09T16:03:44;8.98;;;8.98;;
70450;SDS011;58869;51.982;4.450;2023-10-09T16:06:17;9.22;;;9.22;;
70450;SDS011;58869;51.982;4.450;2023-10-09T16:08:52;8.97;;;8.97;;
70450;SDS011;58869;51.982;4.450;2023-10-09T16:11:30;9.21;;;9.21;;
70450;SDS011;58869;51.982;4.450;2023-10-09T16:14:01;8.94;;;8.94;;
70450;SDS011;58869;51.982;4.450;2023-10-09T16:16:31;9.25;;;9.25;;
70450;SDS011;58869;51.982;4.450;2023-10-09T16:19:00;9.68;;;9.65;;
70450;SDS011;58869;51.982;4.450;2023-10-09T16:21:27;9.57;;;9.57;;
70450;SDS011;58869;51.982;4.450;2023-10-09T16:23:54;9.58;;;9.58;;